Time;durP1;ratioP1;P1;durP2;ratioP2;P2;SDS_P1;SDS_P2;PMS_P1;PMS_P2;Temp;Humidity;BMP_temperature;BMP_pressure;BME280_temperature;BME280_humidity;BME280_pressure;Samples;Min_cycle;Max_cycle;Signal;HPM_P1;HPM_P2
2022/07/02 00:01:07;;;;;;;3.72;3.35;;;;;;;16.52;62.60;99418.34;4993116;28;20025;-83
2022/07/02 00:03:38;;;;;;;3.88;3.50;;;;;;;16.62;63.14;99440.69;5026855;28;20025;-83
2022/07/02 00:06:05;;;;;;;4.18;3.45;;;;;;;16.56;62.64;99436.38;5025063;28;20032;-82
2022/07/02 00:08:32;;;;;;;3.70;3.40;;;;;;;16.48;62.98;99440.44;5027159;28;20047;-83
2022/07/02 00:10:59;;;;;;;7.38;3.72;;;;;;;16.47;63.02;99429.91;5026972;28;20025;-83
2022/07/02 00:13:26;;;;;;;4.35;3.78;;;;;;;16.40;62.87;99426.69;5010267;28;20033;-83
2022/07/02 00:15:52;;;;;;;3.47;3.28;;;;;;;16.40;63.28;99432.88;5025400;28;20064;-83
2022/07/02 00:18:19;;;;;;;3.50;3.20;;;;;;;16.42;62.75;99438.78;5025537;28;20061;-83
2022/07/02 00:20:45;;;;;;;3.55;3.17;;;;;;;16.46;62.66;99444.47;5024058;28;20036;-83
2022/07/02 00:23:11;;;;;;;4.30;3.90;;;;;;;16.31;62.88;99433.72;5026048;28;20523;-84
2022/07/02 00:25:53;;;;;;;5.80;3.28;;;;;;;16.31;63.39;99444.50;5024615;28;20104;-84
2022/07/02 00:28:19;;;;;;;6.68;4.25;;;;;;;16.03;63.02;99424.28;5025922;28;20040;-83
2022/07/02 00:30:46;;;;;;;3.85;3.55;;;;;;;16.11;63.64;99445.31;5023853;28;20029;-83
2022/07/02 00:33:13;;;;;;;4.93;3.63;;;;;;;15.96;63.62;99423.75;5026393;28;20076;-83
2022/07/02 00:35:40;;;;;;;4.47;4.07;;;;;;;16.10;63.61;99440.16;5027532;28;20485;-83
2022/07/02 00:38:07;;;;;;;4.50;4.10;;;;;;;16.22;63.44;99451.50;5027081;28;20068;-83
2022/07/02 00:40:33;;;;;;;5.38;3.97;;;;;;;16.06;63.59;99431.00;5030459;28;20033;-83
2022/07/02 00:42:59;;;;;;;6.13;3.95;;;;;;;15.95;63.67;99440.97;5028307;28;20033;-82
2022/07/02 00:45:26;;;;;;;6.95;4.38;;;;;;;15.96;63.53;99450.69;5031358;28;20103;-83
2022/07/02 00:47:54;;;;;;;4.60;3.80;;;;;;;15.95;63.70;99450.94;4996825;28;20388;-83
2022/07/02 00:50:20;;;;;;;4.93;3.70;;;;;;;16.02;63.48;99460.38;5042640;28;20024;-83
2022/07/02 00:52:45;;;;;;;4.30;3.78;;;;;;;15.96;64.09;99466.84;5029067;28;20026;-83
2022/07/02 00:55:12;;;;;;;4.30;3.40;;;;;;;15.85;63.88;99442.88;5029756;28;20026;-83
2022/07/02 00:57:38;;;;;;;4.75;4.35;;;;;;;15.92;63.93;99449.63;5029802;28;20436;-83
2022/07/02 01:00:04;;;;;;;4.13;3.75;;;;;;;15.94;64.02;99452.84;5026774;28;20318;-83
2022/07/02 01:02:30;;;;;;;4.18;3.78;;;;;;;15.81;63.77;99445.28;5027856;28;20040;-83
2022/07/02 01:04:58;;;;;;;6.90;4.25;;;;;;;15.77;64.11;99455.78;5030862;28;20021;-83
2022/07/02 01:07:24;;;;;;;3.97;3.67;;;;;;;15.67;nan;99439.63;5029318;28;20035;-83
2022/07/02 01:12:35;;;;;;;5.40;4.00;;;;;;;15.75;64.20;99459.78;5028922;28;20036;-83
2022/07/02 01:15:01;;;;;;;4.45;3.75;;;;;;;15.55;64.16;99435.56;5029770;28;20098;-83
2022/07/02 01:17:27;;;;;;;6.88;4.03;;;;;;;15.62;64.49;99463.81;5029240;28;20447;-83
2022/07/02 01:19:52;;;;;;;6.07;4.97;;;;;;;15.56;65.10;99448.75;5027784;28;20029;-82
2022/07/02 01:22:22;;;;;;;9.07;4.82;;;;;;;15.58;64.71;99456.53;5022497;28;20116;-83
2022/07/02 01:24:49;;;;;;;6.93;4.30;;;;;;;15.65;64.50;99465.19;5013464;28;20374;-83
2022/07/02 01:27:16;;;;;;;8.05;4.82;;;;;;;15.65;64.35;99476.75;5025469;28;20040;-83
2022/07/02 01:29:42;;;;;;;4.68;4.28;;;;;;;15.55;64.59;99463.25;5025859;28;20030;-83
2022/07/02 01:32:08;;;;;;;5.88;3.97;;;;;;;15.48;64.53;99465.41;5028823;28;20481;-83
2022/07/02 01:34:39;;;;;;;4.68;4.38;;;;;;;15.56;64.83;99477.53;5014023;28;20033;-83
2022/07/02 01:37:08;;;;;;;5.07;3.60;;;;;;;15.15;65.91;99464.97;5010481;28;20131;-83
2022/07/02 01:39:36;;;;;;;4.10;3.70;;;;;;;15.37;65.68;99473.69;5012413;28;20058;-83
2022/07/02 01:42:01;;;;;;;4.38;3.97;;;;;;;15.40;64.86;99455.13;5027885;28;20043;-83
2022/07/02 01:44:27;;;;;;;5.45;4.30;;;;;;;15.37;65.25;99460.22;4989864;28;20087;-83
2022/07/02 01:46:52;;;;;;;7.13;4.50;;;;;;;15.32;65.41;99452.13;5010204;28;20108;-83
2022/07/02 01:49:18;;;;;;;5.82;4.00;;;;;;;15.28;65.15;99453.75;5008046;28;20036;-83
2022/07/02 01:51:43;;;;;;;6.00;4.60;;;;;;;15.23;64.77;99442.94;5028097;28;20096;-83
2022/07/02 01:54:09;;;;;;;4.70;3.83;;;;;;;15.33;65.08;99465.31;5027884;28;20072;-83
2022/07/02 01:56:36;;;;;;;6.28;4.13;;;;;;;15.42;65.16;99469.09;5026235;28;20033;-83
2022/07/02 01:59:01;;;;;;;3.90;3.47;;;;;;;15.43;64.87;99451.09;5026783;28;20033;-83
2022/07/02 02:01:27;;;;;;;5.38;4.63;;;;;;;15.21;65.44;99453.16;5027038;28;20048;-83
2022/07/02 02:03:52;;;;;;;4.05;3.65;;;;;;;15.15;65.44;99462.28;4995307;28;20068;-83
2022/07/02 02:06:17;;;;;;;5.95;4.00;;;;;;;15.02;65.86;99458.22;5044758;28;20022;-83
2022/07/02 02:08:43;;;;;;;3.47;3.17;;;;;;;15.18;66.10;99476.00;5006949;28;20496;-84
2022/07/02 02:11:08;;;;;;;5.68;3.22;;;;;;;15.09;65.99;99472.22;5027718;28;20120;-83
2022/07/02 02:13:34;;;;;;;4.45;4.00;;;;;;;15.20;65.33;99471.19;5026962;28;20042;-83
2022/07/02 02:15:59;;;;;;;3.95;3.55;;;;;;;14.77;66.04;99399.75;4995889;28;20123;-83
2022/07/02 02:18:24;;;;;;;4.47;4.07;;;;;;;15.18;66.06;99483.28;5027143;28;20037;-83
2022/07/02 02:20:50;;;;;;;4.10;3.72;;;;;;;15.01;66.42;99470.03;5027467;28;20722;-83
2022/07/02 02:23:15;;;;;;;4.32;3.20;;;;;;;15.19;65.76;99469.56;5010674;28;20153;-83
2022/07/02 02:25:41;;;;;;;3.92;3.33;;;;;;;15.25;65.93;99473.91;5030171;28;20033;-83
2022/07/02 02:28:06;;;;;;;5.38;3.67;;;;;;;15.34;66.15;99499.22;5028360;28;20033;-83
2022/07/02 02:30:31;;;;;;;4.05;3.55;;;;;;;15.41;65.81;99488.22;5026374;28;20060;-83
2022/07/02 02:32:57;;;;;;;11.63;3.80;;;;;;;15.35;66.17;99475.81;5043787;28;20128;-83
2022/07/02 02:35:22;;;;;;;3.85;3.55;;;;;;;15.47;65.85;99481.81;5011432;28;20397;-83
2022/07/02 02:37:48;;;;;;;5.22;3.78;;;;;;;15.52;65.73;99487.22;5027982;28;20041;-83
2022/07/02 02:40:13;;;;;;;3.80;3.50;;;;;;;15.36;66.51;99470.16;5010754;28;20034;-83
2022/07/02 02:42:39;;;;;;;4.93;3.83;;;;;;;15.41;66.50;99490.91;5024747;28;20037;-83
2022/07/02 02:45:04;;;;;;;6.03;4.70;;;;;;;15.41;66.89;99494.41;5027449;28;20025;-83
2022/07/02 02:47:30;;;;;;;4.70;4.30;;;;;;;15.36;67.35;99501.63;5026350;28;20041;-83
2022/07/02 02:49:55;;;;;;;7.80;4.05;;;;;;;15.37;67.23;99487.13;5012157;28;20045;-82
2022/07/02 02:52:21;;;;;;;4.80;4.43;;;;;;;15.48;67.11;99500.38;5027671;28;20025;-83
2022/07/02 02:54:46;;;;;;;5.15;4.43;;;;;;;15.58;66.77;99492.34;5030642;28;20554;-83
2022/07/02 02:57:12;;;;;;;5.78;4.57;;;;;;;15.57;67.12;99490.72;5009513;28;20034;-83
2022/07/02 02:59:38;;;;;;;6.25;3.78;;;;;;;15.43;66.93;99475.31;5029902;28;20029;-83
2022/07/02 03:02:03;;;;;;;7.45;4.13;;;;;;;15.44;67.18;99479.66;5028347;28;20091;-83
2022/07/02 03:04:29;;;;;;;6.10;4.10;;;;;;;15.28;67.35;99477.94;5011459;28;20037;-83
2022/07/02 03:06:54;;;;;;;6.60;4.57;;;;;;;15.28;67.88;99478.75;5012509;28;20052;-83
2022/07/02 03:09:19;;;;;;;4.57;4.28;;;;;;;15.33;67.93;99494.09;5025294;28;20108;-83
2022/07/02 03:11:45;;;;;;;6.43;4.97;;;;;;;15.33;67.99;99494.09;4995502;28;20036;-83
2022/07/02 03:14:10;;;;;;;5.00;4.13;;;;;;;15.32;67.86;99504.06;4994081;28;20048;-83
2022/07/02 03:16:36;;;;;;;5.40;4.45;;;;;;;15.23;67.67;99467.97;5026789;28;20033;-83
2022/07/02 03:19:01;;;;;;;8.40;4.82;;;;;;;15.43;67.91;99502.22;5029191;28;20106;-83
2022/07/02 03:21:27;;;;;;;5.20;4.65;;;;;;;15.30;67.82;99497.31;5028580;28;20075;-83
2022/07/02 03:23:52;;;;;;;5.35;4.82;;;;;;;15.32;67.84;99503.25;5028999;28;20067;-83
2022/07/02 03:26:17;;;;;;;5.25;4.85;;;;;;;15.41;67.81;99517.81;5012484;28;20127;-83
2022/07/02 03:28:43;;;;;;;6.45;4.45;;;;;;;15.40;67.68;99525.06;5027731;28;20485;-82
2022/07/02 03:31:08;;;;;;;5.05;4.55;;;;;;;15.24;67.95;99514.50;5026365;28;20410;-83
2022/07/02 03:33:34;;;;;;;6.22;4.78;;;;;;;15.38;67.98;99524.50;5025746;28;20041;-83
2022/07/02 03:35:59;;;;;;;5.22;4.25;;;;;;;15.35;68.16;99532.31;5024053;28;20044;-82
2022/07/02 03:38:25;;;;;;;4.65;4.20;;;;;;;15.15;68.61;99513.38;5009750;28;20057;-83
2022/07/02 03:40:50;;;;;;;5.40;4.38;;;;;;;15.25;68.24;99524.19;5025540;28;20482;-83
2022/07/02 03:43:16;;;;;;;6.00;4.68;;;;;;;15.27;67.95;99525.53;5009932;28;20025;-83
2022/07/02 03:45:41;;;;;;;4.70;4.30;;;;;;;15.20;68.21;99524.19;5023004;28;20033;-83
2022/07/02 03:48:07;;;;;;;4.60;4.00;;;;;;;15.18;68.45;99523.63;5008073;28;20030;-83
2022/07/02 03:50:33;;;;;;;5.05;4.55;;;;;;;15.06;68.66;99520.31;5024404;28;20033;-83
2022/07/02 03:52:58;;;;;;;5.38;4.80;;;;;;;15.18;68.26;99543.25;5025155;28;20037;-83
2022/07/02 03:55:24;;;;;;;4.68;4.20;;;;;;;15.08;68.38;99532.44;5025805;28;20073;-83
2022/07/02 03:57:49;;;;;;;4.20;3.85;;;;;;;15.07;68.54;99530.81;5003845;28;20413;-83
2022/07/02 04:00:15;;;;;;;4.60;4.07;;;;;;;15.15;68.43;99541.09;5007754;28;20048;-83
2022/07/02 04:02:40;;;;;;;4.07;3.50;;;;;;;15.19;68.62;99536.81;5023373;28;20544;-83
2022/07/02 04:05:07;;;;;;;4.20;3.72;;;;;;;15.09;68.33;99531.38;5026744;28;20385;-83
2022/07/02 04:07:32;;;;;;;4.50;3.90;;;;;;;15.25;68.28;99556.47;5026868;28;20044;-83
2022/07/02 04:09:58;;;;;;;5.20;3.47;;;;;;;15.25;68.47;99545.69;5031654;28;20029;-83
2022/07/02 04:12:23;;;;;;;7.05;3.97;;;;;;;15.27;68.67;99541.69;5001885;28;20036;-83
2022/07/02 04:14:49;;;;;;;6.88;4.13;;;;;;;15.11;68.89;99525.75;5029447;28;20133;-83
2022/07/02 04:17:14;;;;;;;7.97;4.47;;;;;;;15.33;68.58;99545.22;5023675;28;20044;-82
2022/07/02 04:19:39;;;;;;;5.88;4.55;;;;;;;15.43;68.16;99539.88;5027093;28;20033;-82
2022/07/02 04:22:05;;;;;;;5.68;4.63;;;;;;;15.47;68.18;99533.75;5025631;28;20044;-83
2022/07/02 04:24:30;;;;;;;7.25;4.60;;;;;;;15.63;68.29;99554.25;5006373;28;20026;-83
2022/07/02 04:26:57;;;;;;;6.32;4.60;;;;;;;15.55;68.37;99517.06;5026800;28;20116;-83
2022/07/02 04:29:23;;;;;;;7.25;4.18;;;;;;;15.69;68.62;99547.81;5025163;28;20128;-83
2022/07/02 04:31:48;;;;;;;6.47;4.25;;;;;;;15.85;67.58;99543.28;5029197;28;20018;-83
2022/07/02 04:34:14;;;;;;;4.85;4.15;;;;;;;15.90;68.09;99545.97;5024684;28;20033;-83
2022/07/02 04:36:39;;;;;;;4.47;3.75;;;;;;;16.02;67.59;99543.84;5010056;28;20125;-83
2022/07/02 04:39:06;;;;;;;5.47;3.95;;;;;;;16.14;67.57;99547.09;5010273;28;20030;-83
2022/07/02 04:41:32;;;;;;;4.68;4.00;;;;;;;16.25;67.32;99545.25;5007567;28;20041;-83
2022/07/02 04:43:58;;;;;;;5.75;4.13;;;;;;;16.24;70.70;99551.69;5022828;28;20021;-81
2022/07/02 04:46:23;;;;;;;6.03;4.38;;;;;;;16.31;70.35;99555.75;5026093;28;20030;-82
2022/07/02 04:48:49;;;;;;;8.00;4.60;;;;;;;15.95;73.24;99542.47;5042874;28;20061;-82
2022/07/02 04:51:14;;;;;;;3.50;3.20;;;;;;;16.08;70.50;99542.78;5011597;28;20120;-82
2022/07/02 04:53:40;;;;;;;5.43;3.35;;;;;;;16.33;70.69;99564.38;5023076;28;20044;-81
2022/07/02 04:56:05;;;;;;;5.20;3.47;;;;;;;16.59;67.66;99549.06;5027213;28;20040;-82
2022/07/02 04:58:30;;;;;;;4.82;3.50;;;;;;;16.67;70.39;99553.06;4993552;28;20037;-82
2022/07/02 05:00:56;;;;;;;7.32;3.63;;;;;;;16.75;67.56;99545.28;5027015;28;20049;-82
2022/07/02 05:03:21;;;;;;;2.95;2.67;;;;;;;17.06;66.01;99563.00;4991729;28;20045;-81
2022/07/02 05:05:47;;;;;;;4.90;3.50;;;;;;;17.11;67.23;99562.19;5010245;28;20033;-82
2022/07/02 05:08:12;;;;;;;3.92;3.55;;;;;;;17.04;69.61;99551.69;5026956;28;20484;-82
2022/07/02 05:10:37;;;;;;;3.67;3.28;;;;;;;17.14;69.29;99565.16;5027695;28;20037;-82
2022/07/02 05:13:04;;;;;;;5.13;4.28;;;;;;;16.39;71.70;99546.31;5011189;28;20041;-82
2022/07/02 05:15:30;;;;;;;4.40;3.15;;;;;;;16.66;69.17;99541.50;5025309;28;20025;-81
2022/07/02 05:17:56;;;;;;;4.68;3.40;;;;;;;16.87;69.00;99569.25;5010184;28;20477;-82
2022/07/02 05:20:21;;;;;;;7.75;4.80;;;;;;;16.08;71.68;99550.06;5010969;28;20039;-82
2022/07/02 05:22:46;;;;;;;4.43;3.08;;;;;;;16.77;68.53;99571.97;5013595;28;20037;-82
2022/07/02 05:25:12;;;;;;;5.43;4.93;;;;;;;16.75;70.40;99574.13;5024051;28;20029;-81
2022/07/02 05:27:37;;;;;;;4.68;3.95;;;;;;;17.43;67.42;99578.03;5030699;28;20527;-82
2022/07/02 05:30:03;;;;;;;4.47;3.92;;;;;;;17.66;67.01;99578.25;5007323;28;20053;-81
2022/07/02 05:32:29;;;;;;;5.60;3.85;;;;;;;17.07;68.78;99577.31;5026796;28;20639;-82
2022/07/02 05:34:54;;;;;;;8.35;5.18;;;;;;;17.20;70.04;99572.16;5029132;28;20124;-82
2022/07/02 05:37:20;;;;;;;6.00;5.13;;;;;;;16.86;70.56;99576.50;5030913;28;20401;-82
2022/07/02 05:39:45;;;;;;;6.93;4.20;;;;;;;17.23;67.60;99560.03;5030863;28;20083;-82
2022/07/02 05:42:10;;;;;;;9.73;6.22;;;;;;;16.43;72.32;99567.06;5007182;28;20124;-82
2022/07/02 05:44:36;;;;;;;9.65;5.80;;;;;;;15.98;73.73;99572.41;5013321;28;20029;-82
2022/07/02 05:47:01;;;;;;;8.27;5.32;;;;;;;15.85;75.71;99551.38;5014567;28;20025;-82
2022/07/02 05:49:26;;;;;;;7.05;4.93;;;;;;;16.60;72.60;99572.22;5029944;28;20079;-82
2022/07/02 05:51:52;;;;;;;7.95;5.45;;;;;;;16.13;72.15;99561.66;5027999;28;20091;-82
2022/07/02 05:54:17;;;;;;;7.60;5.30;;;;;;;15.98;73.79;99568.88;5016613;28;20081;-81
2022/07/02 05:56:43;;;;;;;4.20;3.90;;;;;;;16.28;72.59;99567.06;5030513;28;20486;-81
2022/07/02 05:59:08;;;;;;;5.45;4.95;;;;;;;16.53;72.84;99570.88;5032414;28;20049;-81
2022/07/02 06:01:33;;;;;;;5.03;4.28;;;;;;;17.18;70.46;99576.22;5026776;28;20393;-81
2022/07/02 06:03:59;;;;;;;3.50;3.20;;;;;;;17.60;67.81;99592.84;5030684;28;20021;-81
2022/07/02 06:09:08;;;;;;;7.40;4.78;;;;;;;17.24;69.34;99572.41;5030841;28;20044;-81
2022/07/02 06:11:34;;;;;;;4.90;3.97;;;;;;;16.71;72.75;99579.22;5008824;28;20049;-81
2022/07/02 06:13:59;;;;;;;3.78;3.45;;;;;;;16.96;70.93;99579.22;4995611;28;20033;-81
2022/07/02 06:16:27;;;;;;;5.00;3.13;;;;;;;17.92;66.77;99576.22;4997023;28;20511;-81
2022/07/02 06:18:53;;;;;;;4.15;3.63;;;;;;;17.99;68.19;99582.13;5033849;28;20030;-81
2022/07/02 06:21:18;;;;;;;3.33;2.67;;;;;;;18.38;64.77;99587.56;5030577;28;20044;-82
2022/07/02 06:23:43;;;;;;;5.60;3.67;;;;;;;17.69;69.37;99558.00;5009463;28;20451;-81
2022/07/02 06:26:09;;;;;;;4.47;2.80;;;;;;;17.57;67.76;99517.00;5031335;28;20034;-81
2022/07/02 06:28:34;;;;;;;4.65;3.80;;;;;;;17.46;71.65;99572.88;5030455;28;20037;-81
2022/07/02 06:31:00;;;;;;;4.32;3.00;;;;;;;17.16;70.67;99576.50;5010257;28;20496;-81
2022/07/02 06:33:25;;;;;;;6.18;3.58;;;;;;;17.07;70.79;99567.34;5029987;28;20179;-81
2022/07/02 06:35:50;;;;;;;2.95;2.75;;;;;;;17.98;66.50;99575.09;5012928;28;20033;-81
2022/07/02 06:38:16;;;;;;;7.25;3.40;;;;;;;17.68;71.16;99592.28;5013831;28;20080;-81
2022/07/02 06:40:41;;;;;;;4.43;3.00;;;;;;;17.94;67.51;99588.38;5012807;28;20603;-81
2022/07/02 06:43:07;;;;;;;7.15;3.42;;;;;;;17.31;71.21;99591.00;5016473;28;20079;-81
2022/07/02 06:45:32;;;;;;;5.45;2.58;;;;;;;17.76;68.26;99602.50;5030625;28;20033;-81
2022/07/02 06:47:58;;;;;;;5.90;2.90;;;;;;;18.03;68.03;99585.91;5045157;28;20033;-81
2022/07/02 06:50:23;;;;;;;2.67;2.40;;;;;;;18.81;64.08;99599.41;5027591;28;20087;-81
2022/07/02 06:52:49;;;;;;;4.32;2.55;;;;;;;19.16;63.08;99591.78;5016225;28;20132;-81
2022/07/02 06:55:14;;;;;;;4.15;2.65;;;;;;;18.27;67.91;99600.34;5028478;28;20489;-81
2022/07/02 06:57:40;;;;;;;2.80;2.60;;;;;;;18.14;69.13;99600.16;5028712;28;20037;-81
2022/07/02 07:00:06;;;;;;;5.18;2.53;;;;;;;18.01;68.09;99598.06;5029035;28;20048;-81
2022/07/02 07:02:32;;;;;;;5.00;2.95;;;;;;;18.52;67.97;99585.88;5025105;28;20678;-81
2022/07/02 07:04:57;;;;;;;5.47;2.83;;;;;;;18.47;69.28;99597.53;5026204;28;20021;-81
2022/07/02 07:07:29;;;;;;;4.50;2.10;;;;;;;18.29;67.05;99594.66;5025338;28;20482;-81
2022/07/02 07:09:55;;;;;;;2.80;2.05;;;;;;;18.61;66.58;99597.69;5026900;28;20045;-81
2022/07/02 07:12:21;;;;;;;3.70;2.30;;;;;;;18.55;64.78;99571.78;5027352;28;20025;-81
2022/07/02 07:14:49;;;;;;;2.97;2.60;;;;;;;18.15;66.93;99593.66;5027936;28;20056;-81
2022/07/02 07:17:14;;;;;;;5.38;2.83;;;;;;;18.82;65.29;99591.03;5027570;28;20126;-81
2022/07/02 07:19:40;;;;;;;3.53;2.30;;;;;;;18.21;66.82;99587.16;5034786;28;20030;-81
2022/07/02 07:22:05;;;;;;;2.30;2.10;;;;;;;18.11;65.45;99577.19;5028710;28;20096;-81
2022/07/02 07:24:31;;;;;;;4.47;2.20;;;;;;;18.51;64.92;99581.56;5012053;28;20041;-81
2022/07/02 07:26:57;;;;;;;4.50;2.22;;;;;;;19.12;64.27;99600.75;5007724;28;20117;-81
2022/07/02 07:29:23;;;;;;;2.63;1.92;;;;;;;19.42;63.29;99585.03;5042364;28;20037;-81
2022/07/02 07:31:48;;;;;;;3.72;2.00;;;;;;;19.69;63.42;99584.47;5027750;28;20227;-82
2022/07/02 07:34:14;;;;;;;4.45;2.33;;;;;;;19.23;64.51;99594.16;5024534;28;20037;-82
2022/07/02 07:36:39;;;;;;;3.78;2.38;;;;;;;19.53;63.93;99596.56;5029346;28;20478;-82
2022/07/02 07:39:05;;;;;;;4.65;2.25;;;;;;;19.90;61.58;99598.53;5007879;28;20116;-82
2022/07/02 07:41:31;;;;;;;2.20;1.98;;;;;;;19.70;62.39;99602.31;5014978;28;20552;-82
2022/07/02 07:43:56;;;;;;;2.70;2.50;;;;;;;18.62;63.80;99591.19;5025403;28;20079;-81
2022/07/02 07:46:22;;;;;;;2.47;2.05;;;;;;;19.15;64.67;99590.19;5028901;28;20030;-81
2022/07/02 07:48:48;;;;;;;4.00;2.15;;;;;;;19.56;62.36;99590.56;5026704;28;20034;-82
2022/07/02 07:51:14;;;;;;;2.50;1.95;;;;;;;19.52;62.67;99610.41;5027858;28;20120;-81
2022/07/02 07:53:40;;;;;;;5.03;2.03;;;;;;;20.19;60.85;99596.53;5030109;28;20079;-82
2022/07/02 07:56:06;;;;;;;2.13;1.90;;;;;;;20.08;62.57;99611.31;5026868;28;20033;-82
2022/07/02 07:58:34;;;;;;;2.53;1.80;;;;;;;20.17;61.16;99596.00;5030524;28;20041;-82
2022/07/02 08:00:59;;;;;;;5.45;2.28;;;;;;;20.07;60.87;99601.59;5004476;28;20041;-82
2022/07/02 08:03:24;;;;;;;4.97;1.95;;;;;;;20.01;61.32;99616.28;5021019;28;20410;-81
2022/07/02 08:05:56;;;;;;;1.92;1.75;;;;;;;20.17;60.88;99606.84;5021003;28;20037;-82
2022/07/02 08:08:21;;;;;;;4.10;1.80;;;;;;;20.07;59.68;99596.94;5023358;28;20035;-81
2022/07/02 08:10:47;;;;;;;4.05;2.35;;;;;;;19.89;60.42;99595.06;5004277;28;20038;-81
2022/07/02 08:13:12;;;;;;;3.55;2.08;;;;;;;19.63;60.42;99582.91;5021195;28;20048;-80
2022/07/02 08:15:38;;;;;;;2.47;1.80;;;;;;;19.78;60.77;99607.09;5024739;28;20478;-82
2022/07/02 08:18:03;;;;;;;3.25;1.67;;;;;;;20.17;60.17;99599.53;5012137;28;20033;-82
2022/07/02 08:20:29;;;;;;;2.00;1.67;;;;;;;20.77;59.11;99565.25;5053100;28;20021;-81
2022/07/02 08:22:54;;;;;;;4.95;1.90;;;;;;;20.90;58.30;99567.19;5035342;28;20033;-81
2022/07/02 08:25:20;;;;;;;3.45;1.65;;;;;;;20.80;58.32;99575.53;5002911;28;20084;-81
2022/07/02 08:27:45;;;;;;;5.38;2.05;;;;;;;20.91;57.54;99576.16;5024495;28;20034;-81
2022/07/02 08:30:11;;;;;;;1.92;1.60;;;;;;;21.13;57.30;99568.19;5035131;28;20029;-81
2022/07/02 08:32:39;;;;;;;2.72;1.50;;;;;;;20.59;56.83;99568.84;5036719;28;20041;-81
2022/07/02 08:35:05;;;;;;;1.77;1.67;;;;;;;20.91;56.82;99568.00;5034477;28;20486;-81
2022/07/02 08:37:31;;;;;;;2.22;1.55;;;;;;;21.07;55.31;99558.53;5037585;28;20026;-81
2022/07/02 08:39:57;;;;;;;2.78;1.67;;;;;;;21.24;55.86;99576.94;5032346;28;20022;-81
2022/07/02 08:42:32;;;;;;;1.85;1.55;;;;;;;21.13;54.12;99564.66;5035338;28;20036;-81
2022/07/02 08:45:00;;;;;;;2.80;1.27;;;;;;;21.57;53.89;99571.13;5035350;28;20025;-81
2022/07/02 08:47:26;;;;;;;7.43;1.90;;;;;;;21.44;54.33;99574.66;5018394;28;20026;-80
2022/07/02 08:49:53;;;;;;;5.57;1.67;;;;;;;20.68;52.22;99563.53;5029961;28;20064;-81
2022/07/02 08:52:21;;;;;;;4.35;1.70;;;;;;;20.56;53.42;99550.44;5019366;28;20087;-81
2022/07/02 08:54:47;;;;;;;1.98;1.40;;;;;;;20.51;55.37;99563.28;5037131;28;20491;-80
2022/07/02 08:57:15;;;;;;;4.13;1.20;;;;;;;20.49;53.14;99543.75;5042148;28;20040;-81
2022/07/02 08:59:41;;;;;;;2.00;1.40;;;;;;;21.47;55.49;99554.25;5044146;28;20037;-81
2022/07/02 09:02:07;;;;;;;2.83;1.60;;;;;;;21.19;54.36;99552.59;5043452;28;20132;-81
2022/07/02 09:04:34;;;;;;;2.47;1.27;;;;;;;21.64;55.03;99532.69;5042846;28;20397;-80
2022/07/02 09:07:03;;;;;;;4.20;1.65;;;;;;;21.71;53.84;99524.91;5025334;28;20033;-81
2022/07/02 09:09:29;;;;;;;1.00;1.00;;;;;;;21.42;50.77;99549.72;5039990;28;20061;-81
2022/07/02 09:11:56;;;;;;;2.00;1.45;;;;;;;21.79;51.59;99542.41;5023535;28;20044;-81
2022/07/02 09:14:23;;;;;;;1.10;1.00;;;;;;;22.26;52.29;99526.41;5025476;28;20029;-81
2022/07/02 09:16:50;;;;;;;3.47;1.50;;;;;;;22.36;51.67;99526.19;5040789;28;20063;-81
2022/07/02 09:19:16;;;;;;;1.45;1.35;;;;;;;21.96;48.10;99526.31;5043773;28;20084;-81
2022/07/02 09:21:50;;;;;;;2.15;1.02;;;;;;;21.99;49.23;99512.91;5007348;28;20124;-81
2022/07/02 09:24:35;;;;;;;1.05;1.05;;;;;;;22.83;51.67;99530.16;5039555;28;20025;-81
2022/07/02 09:27:06;;;;;;;1.95;1.60;;;;;;;23.10;51.07;99538.19;5038842;28;20026;-81
2022/07/02 09:29:49;;;;;;;4.03;1.38;;;;;;;22.98;49.72;99537.13;5041139;28;20045;-81
2022/07/02 09:32:16;;;;;;;2.15;1.38;;;;;;;23.22;50.10;99531.34;5037297;28;20033;-81
2022/07/02 09:34:53;;;;;;;1.42;1.10;;;;;;;23.31;49.74;99507.63;5038365;28;20021;-81
2022/07/02 09:37:24;;;;;;;1.77;1.30;;;;;;;23.71;49.54;99531.84;5035974;28;20030;-82
2022/07/02 09:39:57;;;;;;;1.38;1.02;;;;;;;23.80;48.96;99532.66;5022182;28;20060;-81
2022/07/02 09:42:25;;;;;;;2.50;1.13;;;;;;;23.75;48.37;99505.53;5049135;28;20390;-81
2022/07/02 09:44:51;;;;;;;3.03;1.02;;;;;;;23.39;48.90;99502.25;5062642;28;20044;-81
2022/07/02 09:47:17;;;;;;;3.72;1.05;;;;;;;23.62;47.79;99473.75;5043855;28;20036;-81
2022/07/02 09:49:49;;;;;;;2.83;1.27;;;;;;;23.57;47.47;99446.66;5030420;28;20278;-81
2022/07/02 09:52:16;;;;;;;1.73;1.20;;;;;;;23.56;47.64;99515.13;5047222;28;20387;-81
2022/07/02 09:54:42;;;;;;;2.58;1.20;;;;;;;23.77;48.36;99508.75;5022671;28;20088;-81
2022/07/02 09:57:10;;;;;;;1.85;1.30;;;;;;;24.04;48.28;99513.09;5042727;28;20429;-81
2022/07/02 09:59:37;;;;;;;2.45;1.25;;;;;;;24.02;47.51;99514.53;5044899;28;20048;-81
2022/07/02 10:02:03;;;;;;;2.80;0.98;;;;;;;23.82;47.71;99459.50;5020299;28;20044;-81
2022/07/02 10:04:30;;;;;;;0.88;0.70;;;;;;;24.31;47.15;99492.91;5043222;28;20033;-81
2022/07/02 10:06:57;;;;;;;5.07;1.65;;;;;;;24.38;46.56;99487.75;5025712;28;20026;-81
2022/07/02 10:09:25;;;;;;;1.25;1.15;;;;;;;24.60;45.75;99512.09;5054109;28;20386;-81
2022/07/02 10:11:51;;;;;;;0.75;0.75;;;;;;;24.59;46.60;99505.84;5037340;28;20129;-81
2022/07/02 10:14:20;;;;;;;2.10;1.30;;;;;;;24.83;45.92;99494.44;5019862;28;20428;-81
2022/07/02 10:16:47;;;;;;;1.95;1.38;;;;;;;24.87;46.08;99494.56;5039083;28;20025;-81
2022/07/02 10:19:14;;;;;;;1.92;1.58;;;;;;;24.64;45.42;99477.56;5006570;28;20029;-81
2022/07/02 10:21:39;;;;;;;7.72;1.25;;;;;;;24.28;44.10;99493.53;5051399;28;20611;-81
2022/07/02 10:24:09;;;;;;;2.08;1.60;;;;;;;24.98;45.92;99496.63;5019282;28;20057;-82
2022/07/02 10:26:34;;;;;;;2.08;1.15;;;;;;;25.11;43.84;99498.34;5020943;28;20045;-82
2022/07/02 10:29:04;;;;;;;2.60;1.40;;;;;;;24.89;44.38;99497.78;5025432;28;20022;-82
2022/07/02 10:31:44;;;;;;;10.15;4.82;;;;;;;24.56;44.15;99489.31;5034686;28;20033;-82
2022/07/02 10:34:31;;;;;;;3.53;2.00;;;;;;;24.61;44.05;99474.69;5046948;28;20099;-81
2022/07/02 10:36:58;;;;;;;2.90;1.20;;;;;;;24.43;45.23;99482.13;5036387;28;20061;-81
2022/07/02 10:39:24;;;;;;;3.35;1.77;;;;;;;25.03;44.98;99465.59;5032477;28;20021;-81
2022/07/02 10:41:49;;;;;;;2.15;1.30;;;;;;;25.13;44.41;99484.34;5029966;28;20033;-81
2022/07/02 10:44:15;;;;;;;1.70;1.05;;;;;;;24.83;43.35;99477.22;5031937;28;20503;-81
2022/07/02 10:46:46;;;;;;;2.88;1.50;;;;;;;25.23;42.97;99473.03;4994573;28;20030;-81
2022/07/02 10:49:12;;;;;;;1.83;1.35;;;;;;;25.89;44.50;99490.50;5027709;28;20118;-81
2022/07/02 10:51:38;;;;;;;1.73;0.90;;;;;;;25.93;42.68;99472.28;5024722;28;20075;-82
2022/07/02 10:54:06;;;;;;;2.28;1.02;;;;;;;25.91;41.69;99480.00;5011451;28;20389;-82
2022/07/02 10:56:46;;;;;;;2.17;1.13;;;;;;;26.01;43.47;99476.91;5035195;28;20033;-82
2022/07/02 10:59:25;;;;;;;1.80;1.35;;;;;;;26.39;42.52;99485.75;5028198;28;20036;-82
2022/07/02 11:02:06;;;;;;;3.15;1.15;;;;;;;26.25;42.69;99468.81;4998826;28;20092;-82
2022/07/02 11:04:32;;;;;;;1.65;0.90;;;;;;;26.30;40.87;99465.84;5036274;28;20025;-81
2022/07/02 11:07:12;;;;;;;1.10;1.08;;;;;;;26.31;42.61;99478.44;5036084;28;20124;-81
2022/07/02 11:09:58;;;;;;;3.30;1.05;;;;;;;26.15;42.10;99425.44;5035259;28;20021;-82
2022/07/02 11:12:44;;;;;;;2.85;1.30;;;;;;;26.32;41.51;99419.78;5041551;28;20021;-82
2022/07/02 11:15:32;;;;;;;0.98;0.77;;;;;;;26.74;41.16;99454.16;5038429;28;20030;-82
2022/07/02 11:18:03;;;;;;;2.03;1.00;;;;;;;26.51;40.50;99444.72;5035194;28;20120;-81
2022/07/02 11:20:28;;;;;;;3.13;1.00;;;;;;;26.25;39.84;99427.78;5037296;28;20045;-82
2022/07/02 11:22:57;;;;;;;0.80;0.80;;;;;;;26.58;41.22;99422.25;5062445;28;20021;-82
2022/07/02 11:25:23;;;;;;;1.15;0.90;;;;;;;26.97;41.15;99410.69;5022395;28;20079;-82
2022/07/02 11:27:56;;;;;;;1.15;1.00;;;;;;;26.91;40.73;99424.94;5055623;28;20029;-82
2022/07/02 11:30:31;;;;;;;1.15;1.00;;;;;;;26.43;41.58;99429.16;5040436;28;20025;-82
2022/07/02 11:32:57;;;;;;;2.45;0.90;;;;;;;26.97;41.17;99429.88;5045547;28;20044;-82
2022/07/02 11:35:23;;;;;;;0.90;0.90;;;;;;;27.26;39.37;99426.09;5032921;28;20116;-82
2022/07/02 11:37:49;;;;;;;2.25;0.77;;;;;;;27.22;39.45;99416.94;5035321;28;20120;-82